Time;durP1;ratioP1;P1;durP2;ratioP2;P2;SDS_P1;SDS_P2;PMS_P1;PMS_P2;Temp;Humidity;BMP_temperature;BMP_pressure;BME280_temperature;BME280_humidity;BME280_pressure;Samples;Min_cycle;Max_cycle;Signal;HPM_P1;HPM_P2
2022/05/30 00:00:06;;;;;;;2.67;1.33;;;8.90;99.90;;;;;;5094161;28;20391;-70
2022/05/30 00:02:33;;;;;;;4.78;0.80;;;8.90;99.90;;;;;;5076055;28;20793;-70
2022/05/30 00:04:59;;;;;;;3.10;0.90;;;8.90;99.90;;;;;;5093906;28;20135;-70
2022/05/30 00:07:25;;;;;;;5.55;1.00;;;9.40;99.90;;;;;;5075689;28;20087;-71
2022/05/30 00:09:51;;;;;;;5.85;1.10;;;9.40;99.90;;;;;;5093673;28;20064;-70
2022/05/30 00:12:17;;;;;;;2.28;0.90;;;9.50;99.90;;;;;;5093685;28;20101;-72
2022/05/30 00:14:42;;;;;;;1.70;0.77;;;8.90;99.90;;;;;;5074776;28;20134;-72
2022/05/30 00:17:08;;;;;;;4.70;0.90;;;8.90;99.90;;;;;;5093933;28;20234;-70
2022/05/30 00:19:38;;;;;;;4.03;1.00;;;8.90;99.90;;;;;;5075366;28;20044;-69
2022/05/30 00:22:05;;;;;;;4.95;0.90;;;9.50;99.90;;;;;;5093724;28;20475;-69
2022/05/30 00:24:32;;;;;;;3.25;0.90;;;8.80;99.90;;;;;;5093617;28;20458;-71
2022/05/30 00:26:58;;;;;;;3.90;0.88;;;9.50;99.90;;;;;;5075665;28;20051;-68
2022/05/30 00:29:24;;;;;;;2.33;0.82;;;8.80;99.90;;;;;;5093418;28;20044;-70
2022/05/30 00:31:50;;;;;;;3.17;0.70;;;8.80;99.90;;;;;;5075914;28;20128;-70
2022/05/30 00:34:18;;;;;;;5.35;0.90;;;10.10;99.90;;;;;;5093530;28;20035;-70
2022/05/30 00:36:44;;;;;;;4.30;0.85;;;9.40;99.90;;;;;;5093511;28;20048;-70
2022/05/30 00:39:09;;;;;;;1.25;0.65;;;9.60;99.90;;;;;;5093478;28;20101;-69
2022/05/30 00:41:35;;;;;;;4.45;1.00;;;8.90;99.90;;;;;;5093358;28;20044;-70
2022/05/30 00:44:01;;;;;;;3.88;0.82;;;8.80;99.90;;;;;;5093250;28;20076;-71
2022/05/30 00:46:27;;;;;;;2.30;0.75;;;9.80;99.90;;;;;;5075406;28;20412;-70
2022/05/30 00:49:13;;;;;;;2.92;0.90;;;8.70;99.90;;;;;;5075573;28;20060;-70
2022/05/30 00:51:51;;;;;;;2.88;0.90;;;8.60;99.90;;;;;;5093133;28;20129;-71
2022/05/30 00:54:22;;;;;;;2.15;0.80;;;8.70;99.90;;;;;;5093248;28;20515;-71
2022/05/30 00:56:55;;;;;;;3.75;1.30;;;9.30;99.90;;;;;;5093381;28;20055;-70
2022/05/30 00:59:22;;;;;;;2.63;1.00;;;9.10;99.90;;;;;;5093340;28;20039;-72
2022/05/30 01:01:47;;;;;;;;;;;8.60;99.90;;;;;;5093688;28;20051;-71
2022/05/30 01:07:01;;;;;;;3.58;1.27;;;8.50;99.90;;;;;;5092900;28;20591;-70
2022/05/30 01:09:31;;;;;;;3.20;0.90;;;8.70;99.90;;;;;;5074905;28;20060;-70
2022/05/30 01:12:03;;;;;;;4.35;1.08;;;9.70;99.90;;;;;;5075101;28;20135;-70
2022/05/30 01:14:35;;;;;;;3.08;0.93;;;8.50;99.90;;;;;;5093124;28;20044;-70
2022/05/30 01:17:08;;;;;;;5.50;1.63;;;8.50;99.90;;;;;;5093076;28;20048;-69
2022/05/30 01:19:46;;;;;;;4.28;1.20;;;8.50;99.90;;;;;;5092767;28;20048;-71
2022/05/30 01:22:50;;;;;;;6.22;1.40;;;8.40;99.90;;;;;;5075115;28;20118;-70
2022/05/30 01:25:45;;;;;;;5.20;1.10;;;8.40;99.90;;;;;;5092985;28;20048;-70
2022/05/30 01:28:33;;;;;;;4.22;1.25;;;8.40;99.90;;;;;;5092776;28;20128;-70
2022/05/30 01:30:58;;;;;;;;;;;8.40;99.90;;;;;;5094047;28;20515;-71
2022/05/30 01:33:24;;;;;;;3.80;0.90;;;9.30;99.90;;;;;;5096992;28;19920;-72
2022/05/30 01:35:50;;;;;;;2.63;1.05;;;8.40;99.90;;;;;;5096872;28;20051;-73
2022/05/30 01:38:16;;;;;;;2.08;1.25;;;8.40;99.90;;;;;;5096504;28;20550;-70
2022/05/30 01:40:42;;;;;;;4.63;1.23;;;8.50;99.90;;;;;;5096620;28;20500;-71
2022/05/30 01:43:07;;;;;;;7.22;1.60;;;8.50;99.90;;;;;;5078820;28;20044;-69
2022/05/30 01:45:33;;;;;;;3.43;1.00;;;8.50;99.90;;;;;;5096725;28;20052;-75
2022/05/30 01:47:59;;;;;;;2.42;1.25;;;9.10;99.90;;;;;;5078764;28;20297;-70
2022/05/30 01:50:27;;;;;;;1.92;1.38;;;8.50;99.90;;;;;;5096504;28;20066;-70
2022/05/30 01:52:53;;;;;;;4.13;1.42;;;8.40;99.90;;;;;;5096472;28;20520;-70
2022/05/30 01:55:18;;;;;;;5.97;1.67;;;8.40;99.90;;;;;;5078388;28;20055;-70
2022/05/30 01:57:44;;;;;;;2.70;1.40;;;8.40;99.90;;;;;;5096558;28;20289;-71
2022/05/30 02:00:11;;;;;;;2.90;1.42;;;8.40;99.90;;;;;;5078477;28;20043;-72
2022/05/30 02:02:37;;;;;;;5.32;1.13;;;8.30;99.90;;;;;;5078396;28;20127;-71
2022/05/30 02:05:04;;;;;;;3.22;1.40;;;8.30;99.90;;;;;;5096288;28;20143;-69
2022/05/30 02:07:30;;;;;;;4.97;1.35;;;8.30;99.90;;;;;;5096030;28;20507;-70
2022/05/30 02:09:56;;;;;;;4.03;1.48;;;8.30;99.90;;;;;;5095835;28;20090;-70
2022/05/30 02:12:22;;;;;;;7.05;1.67;;;8.80;99.90;;;;;;5095904;28;20044;-70
2022/05/30 02:14:48;;;;;;;5.85;1.60;;;8.50;99.90;;;;;;5077893;28;20484;-70
2022/05/30 02:17:14;;;;;;;7.30;1.63;;;8.30;99.90;;;;;;5078141;28;20052;-72
2022/05/30 02:19:43;;;;;;;6.40;1.73;;;8.30;99.90;;;;;;5095877;28;20047;-70
2022/05/30 02:22:17;;;;;;;6.70;1.70;;;9.10;99.90;;;;;;5095830;28;20044;-70
2022/05/30 02:24:43;;;;;;;5.43;2.15;;;8.30;99.90;;;;;;5077929;28;20094;-70
2022/05/30 02:27:11;;;;;;;4.80;1.98;;;8.40;99.90;;;;;;5095710;28;20515;-70
2022/05/30 02:29:37;;;;;;;3.58;1.48;;;8.20;99.90;;;;;;5077831;28;20055;-70
2022/05/30 02:32:04;;;;;;;4.53;1.90;;;8.20;99.90;;;;;;5095493;28;20059;-70
2022/05/30 02:37:14;;;;;;;5.30;2.10;;;9.60;99.90;;;;;;5095402;28;20105;-70
2022/05/30 02:39:40;;;;;;;;;;;8.20;99.90;;;;;;5095790;28;20510;-72
2022/05/30 02:42:07;;;;;;;6.28;1.88;;;8.10;99.90;;;;;;5095412;28;19920;-73
2022/05/30 02:44:33;;;;;;;8.68;2.00;;;8.10;99.90;;;;;;5077673;28;20404;-70
2022/05/30 02:46:59;;;;;;;5.68;1.77;;;8.30;99.90;;;;;;5077497;28;20044;-69
2022/05/30 02:49:26;;;;;;;8.20;3.20;;;8.10;99.90;;;;;;5095214;28;20047;-70
2022/05/30 02:51:52;;;;;;;6.95;2.35;;;8.10;99.90;;;;;;5095162;28;20510;-69
2022/05/30 02:54:18;;;;;;;7.35;2.10;;;8.10;99.90;;;;;;5095022;28;20036;-70
2022/05/30 02:56:52;;;;;;;8.25;1.98;;;8.10;99.90;;;;;;5095400;28;20044;-70
2022/05/30 02:59:18;;;;;;;7.38;2.70;;;8.10;99.90;;;;;;5077050;28;20048;-70
2022/05/30 03:01:44;;;;;;;11.70;2.15;;;8.80;99.90;;;;;;5095213;28;20070;-71
2022/05/30 03:04:10;;;;;;;5.63;2.28;;;8.10;99.90;;;;;;5094195;28;20048;-69
2022/05/30 03:06:36;;;;;;;8.90;2.80;;;9.20;99.90;;;;;;5076987;28;20048;-72
2022/05/30 03:09:02;;;;;;;4.65;1.98;;;8.10;99.90;;;;;;5076771;28;20048;-70
2022/05/30 03:11:28;;;;;;;6.95;2.42;;;8.10;99.90;;;;;;5095120;28;20479;-71
2022/05/30 03:13:54;;;;;;;6.63;2.65;;;8.00;99.90;;;;;;5094965;28;20079;-70
2022/05/30 03:16:20;;;;;;;6.78;2.53;;;9.00;99.90;;;;;;5076959;28;20518;-70
2022/05/30 03:18:46;;;;;;;5.78;2.53;;;8.00;99.90;;;;;;5076844;28;20048;-72
2022/05/30 03:21:12;;;;;;;5.45;3.70;;;8.00;99.90;;;;;;5094703;28;20044;-69
2022/05/30 03:23:37;;;;;;;7.75;2.95;;;8.10;99.90;;;;;;5060085;28;20052;-70
2022/05/30 03:26:04;;;;;;;4.93;2.55;;;8.50;99.90;;;;;;5094899;28;20063;-69
2022/05/30 03:28:31;;;;;;;6.90;2.42;;;8.00;99.90;;;;;;5094768;28;20097;-70
2022/05/30 03:30:58;;;;;;;6.50;2.60;;;8.00;99.90;;;;;;5076661;28;20044;-71
2022/05/30 03:33:24;;;;;;;7.28;2.53;;;8.00;99.90;;;;;;5094640;28;20055;-70
2022/05/30 03:35:50;;;;;;;5.18;2.38;;;8.90;99.90;;;;;;5110476;28;20051;-75
2022/05/30 03:38:15;;;;;;;4.03;1.90;;;8.50;99.90;;;;;;5094156;28;20079;-70
2022/05/30 03:40:41;;;;;;;8.07;2.22;;;8.40;99.90;;;;;;5094278;28;20047;-70
2022/05/30 03:43:09;;;;;;;8.40;1.77;;;8.70;99.90;;;;;;5110447;28;20036;-69
2022/05/30 03:45:40;;;;;;;4.38;1.80;;;8.50;99.90;;;;;;5076235;28;20081;-70
2022/05/30 03:48:08;;;;;;;5.05;1.63;;;7.90;99.90;;;;;;5076288;28;20052;-74
2022/05/30 03:50:35;;;;;;;5.72;1.88;;;8.00;99.90;;;;;;5094212;28;20044;-70
2022/05/30 03:53:04;;;;;;;6.32;2.05;;;7.90;99.90;;;;;;5076000;28;20094;-70
2022/05/30 03:55:34;;;;;;;4.45;1.95;;;8.40;99.90;;;;;;5093805;28;20101;-69
2022/05/30 03:58:02;;;;;;;5.93;2.10;;;7.90;99.90;;;;;;5076231;28;20048;-69
2022/05/30 04:00:28;;;;;;;4.43;2.13;;;8.50;99.90;;;;;;5094129;28;20055;-70
2022/05/30 04:02:54;;;;;;;3.67;2.20;;;7.90;99.90;;;;;;5093968;28;20044;-70
2022/05/30 04:05:20;;;;;;;7.07;2.10;;;7.80;99.90;;;;;;5093965;28;20480;-71
2022/05/30 04:07:46;;;;;;;;;;;7.80;99.90;;;;;;5076271;28;20048;-70
2022/05/30 04:10:13;;;;;;;5.85;1.80;;;8.10;99.90;;;;;;5106349;28;19928;-69
2022/05/30 04:12:38;;;;;;;9.40;1.75;;;7.80;99.90;;;;;;5071931;28;20083;-71
2022/05/30 04:15:08;;;;;;;6.88;1.77;;;7.80;99.90;;;;;;5072555;28;20564;-69
2022/05/30 04:17:35;;;;;;;9.40;1.98;;;7.80;99.90;;;;;;5072541;28;20060;-69
2022/05/30 04:20:02;;;;;;;6.78;2.70;;;8.30;99.90;;;;;;5072128;28;20052;-69
2022/05/30 04:22:27;;;;;;;;;;;7.80;99.90;;;;;;5072777;28;20527;-72
2022/05/30 04:24:55;;;;;;;7.68;1.73;;;7.70;99.90;;;;;;5073584;28;19920;-69
2022/05/30 04:27:21;;;;;;;3.90;1.70;;;7.70;99.90;;;;;;5073564;28;20048;-70
2022/05/30 04:29:47;;;;;;;5.35;2.30;;;8.50;99.90;;;;;;5072451;28;20095;-69
2022/05/30 04:32:12;;;;;;;4.45;1.92;;;8.50;99.90;;;;;;5073317;28;20127;-69
2022/05/30 04:34:38;;;;;;;4.97;2.03;;;7.70;99.90;;;;;;5073193;28;20044;-71
2022/05/30 04:37:04;;;;;;;3.55;2.13;;;8.40;99.90;;;;;;5072998;28;20048;-69
2022/05/30 04:39:30;;;;;;;;;;;7.70;99.90;;;;;;5072650;28;20087;-71
2022/05/30 04:41:56;;;;;;;6.18;2.13;;;8.30;99.90;;;;;;5089218;28;19978;-70
2022/05/30 04:44:21;;;;;;;6.10;2.20;;;7.80;99.90;;;;;;5073246;28;20076;-69
2022/05/30 04:46:57;;;;;;;6.88;2.35;;;8.20;99.90;;;;;;5071998;28;20586;-70
2022/05/30 04:49:24;;;;;;;6.32;1.95;;;9.30;99.90;;;;;;5073108;28;20092;-70
2022/05/30 04:51:51;;;;;;;4.60;1.70;;;8.50;99.90;;;;;;5073041;28;20048;-72
2022/05/30 04:54:18;;;;;;;5.88;1.80;;;7.90;99.90;;;;;;5073223;28;20080;-69
2022/05/30 04:56:43;;;;;;;7.45;2.30;;;7.90;99.90;;;;;;5072248;28;20051;-69
2022/05/30 04:59:09;;;;;;;4.85;2.05;;;8.10;99.90;;;;;;5071996;28;20044;-69
2022/05/30 05:01:36;;;;;;;3.97;2.55;;;7.90;99.90;;;;;;5071912;28;20063;-73
2022/05/30 05:04:07;;;;;;;6.70;2.60;;;8.30;99.90;;;;;;5072133;28;20055;-71
2022/05/30 05:06:34;;;;;;;4.35;1.92;;;8.30;99.90;;;;;;5073405;28;20585;-72
2022/05/30 05:09:22;;;;;;;7.57;2.22;;;8.40;99.90;;;;;;5077118;28;20113;-70
2022/05/30 05:11:48;;;;;;;5.50;2.65;;;8.00;99.90;;;;;;5097388;28;20459;-70
2022/05/30 05:14:17;;;;;;;12.05;3.05;;;8.80;99.90;;;;;;5079147;28;20048;-70
2022/05/30 05:16:43;;;;;;;4.57;2.10;;;8.00;99.90;;;;;;5097015;28;20500;-70
2022/05/30 05:19:09;;;;;;;4.53;1.88;;;8.10;99.90;;;;;;5096865;28;20039;-70
2022/05/30 05:21:40;;;;;;;8.38;3.63;;;8.10;99.90;;;;;;5079382;28;20054;-69
2022/05/30 05:24:07;;;;;;;5.05;2.33;;;8.10;99.90;;;;;;5079194;28;20048;-70
2022/05/30 05:26:33;;;;;;;7.07;2.22;;;8.10;99.90;;;;;;5097028;28;20052;-71
2022/05/30 05:28:59;;;;;;;5.50;2.97;;;8.30;99.90;;;;;;5096920;28;20089;-70
2022/05/30 05:31:34;;;;;;;5.03;3.15;;;8.20;99.90;;;;;;5096831;28;20080;-72
2022/05/30 05:34:03;;;;;;;4.15;2.05;;;8.20;99.90;;;;;;5112794;28;20087;-72
2022/05/30 05:36:32;;;;;;;4.35;1.95;;;8.30;99.90;;;;;;5096916;28;20052;-71
2022/05/30 05:38:58;;;;;;;3.53;1.98;;;8.30;99.90;;;;;;5096614;28;20044;-70
2022/05/30 05:41:24;;;;;;;;;;;8.30;99.90;;;;;;5097592;28;20048;-70
2022/05/30 05:43:53;;;;;;;4.22;1.95;;;9.30;99.90;;;;;;5078487;28;19977;-68
2022/05/30 05:46:20;;;;;;;6.75;2.42;;;9.00;99.90;;;;;;5096593;28;20044;-69
2022/05/30 05:48:46;;;;;;;6.50;2.50;;;8.40;99.90;;;;;;5078505;28;20055;-69
2022/05/30 05:51:13;;;;;;;10.10;2.35;;;8.80;99.90;;;;;;5096615;28;20040;-70
2022/05/30 05:53:40;;;;;;;6.30;2.78;;;8.50;99.90;;;;;;5078649;28;20537;-71
2022/05/30 05:56:17;;;;;;;5.97;2.47;;;9.70;99.90;;;;;;5078531;28;20051;-70
2022/05/30 05:58:43;;;;;;;5.43;2.53;;;8.90;99.90;;;;;;5096294;28;20110;-67
2022/05/30 06:01:17;;;;;;;4.63;2.53;;;10.10;99.90;;;;;;5078310;28;20422;-73
2022/05/30 06:03:42;;;;;;;6.32;2.13;;;8.70;99.90;;;;;;5078435;28;20123;-70
2022/05/30 06:06:08;;;;;;;4.72;2.53;;;9.40;99.90;;;;;;5096362;28;20084;-73
2022/05/30 06:08:34;;;;;;;6.05;2.17;;;9.30;99.90;;;;;;5095856;28;20102;-69
2022/05/30 06:11:05;;;;;;;6.90;2.45;;;9.10;99.90;;;;;;5095996;28;20052;-71
2022/05/30 06:13:32;;;;;;;5.32;2.08;;;8.90;99.90;;;;;;5095936;28;20397;-69
2022/05/30 06:15:57;;;;;;;8.55;2.67;;;8.90;99.90;;;;;;5078378;28;20396;-70
2022/05/30 06:18:23;;;;;;;5.82;2.03;;;9.00;99.90;;;;;;5095432;28;20040;-69
2022/05/30 06:20:49;;;;;;;4.40;1.63;;;9.10;99.90;;;;;;5095870;28;20044;-72
2022/05/30 06:23:15;;;;;;;3.30;1.30;;;9.10;99.90;;;;;;5095818;28;20051;-70
2022/05/30 06:25:42;;;;;;;5.53;1.75;;;9.30;99.90;;;;;;5095934;28;20044;-69
2022/05/30 06:28:08;;;;;;;4.13;1.17;;;9.30;99.90;;;;;;5077919;28;20051;-69
2022/05/30 06:30:36;;;;;;;4.47;1.02;;;10.10;99.90;;;;;;5095654;28;20040;-74
2022/05/30 06:33:02;;;;;;;6.82;1.60;;;9.40;99.90;;;;;;5095834;28;20055;-70
2022/05/30 06:35:28;;;;;;;2.17;1.13;;;9.40;99.90;;;;;;5077944;28;20077;-69
2022/05/30 06:37:53;;;;;;;4.18;2.20;;;9.40;99.90;;;;;;5095474;28;20048;-69
2022/05/30 06:40:19;;;;;;;3.38;3.08;;;9.50;99.90;;;;;;5095610;28;20044;-69
2022/05/30 06:42:45;;;;;;;7.53;2.80;;;9.60;99.90;;;;;;5095463;28;20499;-70
2022/05/30 06:45:10;;;;;;;8.63;3.57;;;10.70;99.90;;;;;;5077546;28;20126;-70
2022/05/30 06:47:36;;;;;;;4.85;3.15;;;9.70;99.90;;;;;;5095507;28;20281;-69
2022/05/30 06:50:04;;;;;;;6.45;2.42;;;9.90;99.90;;;;;;5094874;28;20051;-70
2022/05/30 06:52:30;;;;;;;4.68;1.98;;;9.90;99.90;;;;;;5094930;28;20040;-73
2022/05/30 06:54:56;;;;;;;3.58;0.98;;;9.90;99.90;;;;;;5095137;28;20051;-69
2022/05/30 07:00:06;;;;;;;1.92;0.60;;;10.00;99.90;;;;;;5094878;28;20050;-72
2022/05/30 07:02:32;;;;;;;1.48;0.70;;;10.10;99.90;;;;;;5095113;28;20399;-70
2022/05/30 07:04:57;;;;;;;1.92;0.80;;;10.70;99.90;;;;;;5060057;28;20139;-70
2022/05/30 07:07:26;;;;;;;2.90;0.90;;;10.20;99.90;;;;;;5094967;28;20445;-69
2022/05/30 07:09:52;;;;;;;1.75;0.90;;;10.20;99.90;;;;;;5094646;28;20408;-70
2022/05/30 07:12:17;;;;;;;2.88;1.13;;;10.60;99.90;;;;;;5094896;28;20056;-71
2022/05/30 07:14:43;;;;;;;3.47;1.02;;;10.50;99.90;;;;;;5094683;28;20519;-70
2022/05/30 07:17:12;;;;;;;2.13;0.70;;;10.40;99.90;;;;;;5095281;28;20087;-73
2022/05/30 07:19:38;;;;;;;2.67;0.80;;;10.40;99.90;;;;;;5094793;28;20043;-70
2022/05/30 07:22:04;;;;;;;3.00;1.08;;;11.20;99.90;;;;;;5076842;28;20069;-71
2022/05/30 07:24:30;;;;;;;2.72;0.60;;;10.50;99.90;;;;;;5094702;28;20485;-72
2022/05/30 07:26:56;;;;;;;1.75;0.50;;;10.80;99.90;;;;;;5094598;28;20040;-73
2022/05/30 07:29:22;;;;;;;1.10;0.55;;;10.50;99.90;;;;;;5093640;28;20040;-70
2022/05/30 07:31:47;;;;;;;1.27;0.82;;;10.70;99.90;;;;;;5094681;28;20050;-71
2022/05/30 07:34:13;;;;;;;2.10;0.50;;;10.50;99.90;;;;;;5110491;28;20052;-72
2022/05/30 07:36:39;;;;;;;0.63;0.30;;;10.60;99.90;;;;;;5094484;28;20131;-74
2022/05/30 07:39:04;;;;;;;1.42;0.60;;;10.60;99.90;;;;;;5069102;28;20082;-71
2022/05/30 07:41:31;;;;;;;1.75;0.50;;;10.60;99.90;;;;;;5090027;28;20049;-72
2022/05/30 07:43:57;;;;;;;1.80;0.30;;;10.70;99.90;;;;;;5074035;28;20127;-68
2022/05/30 07:46:25;;;;;;;0.90;0.38;;;10.60;99.90;;;;;;5074184;28;20087;-71
2022/05/30 07:48:51;;;;;;;1.13;0.40;;;10.70;99.90;;;;;;5074173;28;20044;-69
2022/05/30 07:51:17;;;;;;;2.92;0.50;;;10.70;99.90;;;;;;5073831;28;20131;-71
2022/05/30 07:53:44;;;;;;;0.70;0.35;;;10.80;99.90;;;;;;5056210;28;20102;-71
2022/05/30 07:56:14;;;;;;;1.52;0.40;;;10.80;99.90;;;;;;5073833;28;20044;-70
2022/05/30 07:58:40;;;;;;;2.15;0.30;;;10.90;99.90;;;;;;5073567;28;20049;-74
2022/05/30 08:01:11;;;;;;;2.95;0.40;;;11.00;99.90;;;;;;5073954;28;20051;-70
2022/05/30 08:03:36;;;;;;;1.17;0.40;;;11.00;99.90;;;;;;5073714;28;20097;-70
2022/05/30 08:06:06;;;;;;;1.23;0.30;;;10.90;99.90;;;;;;5056233;28;20044;-70
2022/05/30 08:08:32;;;;;;;1.63;0.40;;;10.90;99.90;;;;;;5073725;28;20101;-70
2022/05/30 08:10:57;;;;;;;0.60;0.40;;;10.90;99.90;;;;;;5088627;28;20270;-70
2022/05/30 08:13:23;;;;;;;0.80;0.30;;;11.40;99.90;;;;;;5073346;28;20121;-70
2022/05/30 08:15:49;;;;;;;0.45;0.40;;;11.00;99.90;;;;;;5073519;28;20051;-70
2022/05/30 08:18:16;;;;;;;1.73;0.60;;;10.80;99.90;;;;;;5055580;28;20051;-70
2022/05/30 08:20:42;;;;;;;2.95;0.70;;;10.80;99.90;;;;;;5055423;28;20432;-70
2022/05/30 08:23:08;;;;;;;2.00;0.40;;;10.70;99.90;;;;;;5073438;28;20095;-69
2022/05/30 08:25:34;;;;;;;1.92;0.43;;;10.70;99.90;;;;;;5073416;28;20489;-70
2022/05/30 08:28:00;;;;;;;2.70;0.50;;;10.70;99.90;;;;;;5073280;28;20261;-71
2022/05/30 08:30:25;;;;;;;1.27;0.40;;;10.70;99.90;;;;;;5089116;28;20055;-70
2022/05/30 08:32:51;;;;;;;2.75;0.40;;;10.70;99.90;;;;;;5073366;28;20080;-70
2022/05/30 08:35:19;;;;;;;0.55;0.35;;;10.70;99.90;;;;;;5095567;28;20039;-70
2022/05/30 08:37:45;;;;;;;0.43;0.35;;;10.70;99.90;;;;;;5074056;28;20074;-70
2022/05/30 08:43:16;;;;;;;1.95;0.55;;;10.70;99.90;;;;;;5093351;28;20500;-71
2022/05/30 08:45:44;;;;;;;1.00;0.50;;;10.70;99.90;;;;;;5093556;28;20048;-73
2022/05/30 08:48:14;;;;;;;0.47;0.40;;;10.80;99.90;;;;;;5058351;28;20060;-70
2022/05/30 08:51:02;;;;;;;0.73;0.50;;;10.80;99.90;;;;;;5093173;28;20052;-72
2022/05/30 08:54:08;;;;;;;1.55;0.43;;;10.90;99.90;;;;;;5093533;28;20488;-73
2022/05/30 08:56:38;;;;;;;1.05;0.40;;;11.00;99.90;;;;;;5092590;28;20063;-70
2022/05/30 08:59:16;;;;;;;1.90;1.25;;;11.00;99.90;;;;;;5093003;28;20559;-73
2022/05/30 09:01:53;;;;;;;1.05;0.60;;;11.10;99.90;;;;;;5075003;28;20105;-73
2022/05/30 09:04:36;;;;;;;2.15;0.40;;;11.20;99.90;;;;;;5093350;28;20506;-71
2022/05/30 09:07:16;;;;;;;2.30;0.50;;;11.40;99.90;;;;;;5075216;28;20080;-70
2022/05/30 09:10:03;;;;;;;2.88;0.57;;;11.40;99.90;;;;;;5092832;28;20230;-69
2022/05/30 09:12:43;;;;;;;1.08;0.40;;;11.50;99.90;;;;;;5093079;28;20185;-73
2022/05/30 09:15:17;;;;;;;2.38;0.50;;;11.50;99.90;;;;;;5075105;28;20052;-72
2022/05/30 09:18:01;;;;;;;2.10;0.40;;;11.50;99.90;;;;;;5092997;28;20047;-70
2022/05/30 09:20:29;;;;;;;1.70;0.30;;;11.60;99.90;;;;;;5092720;28;20476;-72
2022/05/30 09:23:05;;;;;;;3.65;0.40;;;11.60;99.90;;;;;;5093060;28;20051;-70
2022/05/30 09:25:55;;;;;;;0.90;0.40;;;11.70;99.90;;;;;;5109122;28;20051;-69
2022/05/30 09:28:21;;;;;;;0.52;0.38;;;11.60;99.90;;;;;;5075155;28;20048;-68
2022/05/30 09:31:09;;;;;;;2.17;0.88;;;11.70;99.90;;;;;;5075137;28;20131;-71
2022/05/30 09:33:38;;;;;;;0.55;0.32;;;11.70;99.90;;;;;;5092817;28;20040;-70
2022/05/30 09:36:36;;;;;;;1.55;0.43;;;11.80;99.90;;;;;;5074936;28;20119;-70
2022/05/30 09:39:08;;;;;;;0.45;0.20;;;11.70;99.90;;;;;;5089954;28;20094;-74
2022/05/30 09:41:39;;;;;;;0.90;0.20;;;11.80;99.90;;;;;;5092198;28;20052;-70
2022/05/30 09:44:22;;;;;;;0.95;0.30;;;11.70;99.90;;;;;;5092830;28;20056;-70
2022/05/30 09:47:05;;;;;;;0.45;0.38;;;11.80;99.90;;;;;;5092434;28;20084;-70
2022/05/30 09:49:51;;;;;;;1.15;0.40;;;11.90;99.90;;;;;;5092423;28;20067;-73
2022/05/30 09:52:29;;;;;;;0.50;0.40;;;11.90;99.90;;;;;;5093514;28;20055;-71
2022/05/30 09:54:57;;;;;;;1.00;0.50;;;12.00;99.90;;;;;;5096171;28;20044;-72
2022/05/30 09:57:34;;;;;;;2.22;0.35;;;12.00;99.90;;;;;;5096015;28;20059;-71
2022/05/30 10:00:34;;;;;;;3.17;0.38;;;12.00;99.90;;;;;;5095901;28;20040;-72
2022/05/30 10:03:25;;;;;;;5.13;0.50;;;12.00;99.90;;;;;;5077701;28;20456;-74
2022/05/30 10:06:09;;;;;;;0.40;0.32;;;12.00;99.90;;;;;;5078215;28;20048;-70
2022/05/30 10:08:39;;;;;;;1.52;0.90;;;12.00;99.90;;;;;;5095659;28;20040;-70
2022/05/30 10:11:07;;;;;;;1.38;0.25;;;12.00;99.90;;;;;;5094963;28;20067;-70
2022/05/30 10:13:37;;;;;;;1.00;0.20;;;12.00;99.90;;;;;;5077761;28;20170;-70
2022/05/30 10:16:09;;;;;;;0.38;0.20;;;12.00;99.90;;;;;;5095831;28;20109;-73
2022/05/30 10:18:43;;;;;;;0.38;0.20;;;12.10;99.90;;;;;;5095652;28;20124;-70
2022/05/30 10:21:26;;;;;;;4.13;0.50;;;12.00;99.90;;;;;;5061044;28;20480;-71
2022/05/30 10:30:06;;;;;;;1.05;0.35;;;12.00;99.90;;;;;;5095303;28;20083;-70
2022/05/30 10:33:07;;;;;;;2.50;0.30;;;11.90;99.90;;;;;;5095226;28;20074;-70
2022/05/30 10:36:03;;;;;;;1.40;0.60;;;11.70;99.90;;;;;;5095313;28;20047;-70
2022/05/30 10:38:51;;;;;;;2.53;0.40;;;11.60;99.90;;;;;;5077237;28;20455;-72
2022/05/30 10:41:57;;;;;;;0.68;0.30;;;11.50;99.90;;;;;;5077393;28;20055;-70
2022/05/30 10:44:39;;;;;;;1.33;0.40;;;11.40;99.90;;;;;;4996943;28;20054;-69
2022/05/30 10:47:29;;;;;;;0.95;0.30;;;11.40;99.90;;;;;;5013067;28;20086;-71
2022/05/30 10:50:22;;;;;;;0.90;0.30;;;11.40;99.90;;;;;;5012952;28;20136;-69
2022/05/30 10:53:03;;;;;;;1.90;0.35;;;11.40;99.90;;;;;;4938565;29;20195;-71
2022/05/30 10:55:43;;;;;;;3.83;0.75;;;11.50;99.90;;;;;;4938835;29;20047;-70
2022/05/30 10:58:35;;;;;;;0.77;0.52;;;11.60;99.90;;;;;;4954486;29;20063;-70
2022/05/30 11:01:17;;;;;;;1.75;0.40;;;11.70;99.90;;;;;;4954437;29;20058;-70
2022/05/30 11:04:10;;;;;;;1.23;0.40;;;11.80;99.90;;;;;;4954227;28;20067;-70
2022/05/30 11:06:41;;;;;;;0.88;0.47;;;11.90;99.90;;;;;;4954272;29;20043;-72
2022/05/30 11:09:24;;;;;;;1.52;0.60;;;11.90;99.90;;;;;;4953856;29;20062;-74
2022/05/30 11:12:25;;;;;;;1.65;0.50;;;12.00;99.90;;;;;;4954018;29;20059;-75
2022/05/30 11:15:06;;;;;;;1.92;0.50;;;12.00;99.90;;;;;;4954287;29;20114;-70
2022/05/30 11:17:49;;;;;;;0.80;0.40;;;12.00;99.90;;;;;;4953541;28;20057;-70
2022/05/30 11:20:28;;;;;;;1.05;0.40;;;12.00;99.90;;;;;;5031921;28;20076;-74
2022/05/30 11:22:57;;;;;;;2.17;0.40;;;11.90;99.90;;;;;;5030822;28;20538;-71
2022/05/30 11:25:39;;;;;;;1.35;0.47;;;11.90;99.90;;;;;;5031930;28;20058;-72
2022/05/30 11:28:27;;;;;;;0.70;0.30;;;11.90;99.90;;;;;;5032086;28;20049;-72
2022/05/30 11:31:05;;;;;;;0.90;0.40;;;11.90;99.90;;;;;;5092819;28;20060;-70
2022/05/30 11:33:49;;;;;;;1.65;0.50;;;11.90;99.90;;;;;;5094141;28;20569;-71
2022/05/30 11:36:38;;;;;;;1.55;0.30;;;12.00;99.90;;;;;;5076367;28;20044;-71
2022/05/30 11:39:33;;;;;;;4.28;0.40;;;12.00;99.90;;;;;;5093837;28;20128;-70
2022/05/30 11:42:25;;;;;;;1.63;0.40;;;12.00;99.90;;;;;;5094003;28;20040;-71
2022/05/30 11:45:00;;;;;;;2.47;0.95;;;12.00;99.90;;;;;;5094019;28;20048;-71
2022/05/30 11:47:59;;;;;;;0.47;0.40;;;12.00;99.90;;;;;;5094012;28;20123;-71
2022/05/30 11:50:49;;;;;;;0.65;0.30;;;12.10;99.90;;;;;;5093845;28;20484;-70
2022/05/30 11:53:56;;;;;;;0.40;0.20;;;12.00;99.90;;;;;;5093632;28;20044;-75
2022/05/30 11:56:45;;;;;;;1.00;0.35;;;12.00;99.90;;;;;;5076220;28;20079;-72
2022/05/30 11:59:25;;;;;;;2.35;0.30;;;12.00;99.90;;;;;;5093655;28;20560;-71
2022/05/30 12:01:58;;;;;;;1.58;0.32;;;12.00;99.90;;;;;;5075812;28;20082;-71
2022/05/30 12:04:32;;;;;;;1.15;0.30;;;11.90;99.90;;;;;;5093573;28;20211;-72
2022/05/30 12:07:21;;;;;;;2.08;0.40;;;12.00;99.90;;;;;;5075971;28;20515;-74
2022/05/30 12:10:12;;;;;;;1.40;0.47;;;12.00;99.90;;;;;;5093171;28;20040;-71
2022/05/30 12:13:26;;;;;;;3.08;0.40;;;11.90;99.90;;;;;;5093513;28;20044;-70
2022/05/30 12:15:59;;;;;;;1.40;0.50;;;11.90;99.90;;;;;;4994749;28;20065;-70
2022/05/30 12:24:39;;;;;;;0.40;0.20;;;11.80;99.90;;;;;;5011145;28;20089;-71
2022/05/30 12:27:11;;;;;;;3.33;0.40;;;11.60;99.90;;;;;;5011376;28;20436;-70
2022/05/30 12:29:44;;;;;;;0.65;0.45;;;11.70;99.90;;;;;;5011283;28;20041;-70
2022/05/30 12:32:21;;;;;;;0.60;0.40;;;11.70;99.90;;;;;;4995279;28;20092;-70
2022/05/30 12:35:00;;;;;;;0.52;0.30;;;11.70;99.90;;;;;;5011116;28;20046;-70
2022/05/30 12:37:46;;;;;;;2.70;0.40;;;11.70;99.90;;;;;;4994773;28;20086;-71
2022/05/30 12:40:26;;;;;;;0.70;0.38;;;11.60;99.90;;;;;;5010922;28;20041;-72
2022/05/30 12:43:27;;;;;;;1.00;0.20;;;11.60;99.90;;;;;;4994728;28;20453;-74
2022/05/30 12:45:57;;;;;;;0.38;0.20;;;11.50;99.90;;;;;;4994602;28;20064;-71
2022/05/30 12:48:35;;;;;;;0.40;0.20;;;11.50;99.90;;;;;;5010988;28;20049;-74
2022/05/30 12:51:26;;;;;;;1.00;0.40;;;11.50;99.90;;;;;;5036982;28;20058;-72
2022/05/30 12:53:59;;;;;;;0.98;0.43;;;11.50;99.90;;;;;;5074790;28;20048;-71
2022/05/30 12:56:39;;;;;;;0.73;0.30;;;11.40;99.90;;;;;;5092750;28;20055;-74
2022/05/30 12:59:20;;;;;;;0.70;0.40;;;11.30;99.90;;;;;;5074979;28;20051;-70
2022/05/30 13:01:47;;;;;;;1.08;0.50;;;11.20;99.90;;;;;;5074827;28;20507;-70
2022/05/30 13:04:25;;;;;;;0.90;0.60;;;11.20;99.90;;;;;;5092677;28;20051;-69
2022/05/30 13:07:14;;;;;;;0.85;0.40;;;11.20;99.90;;;;;;5093087;28;20048;-71
2022/05/30 13:09:43;;;;;;;2.17;0.57;;;11.10;99.90;;;;;;5092662;28;20044;-70
2022/05/30 13:12:11;;;;;;;1.02;0.45;;;11.10;99.90;;;;;;5093033;28;20084;-71
2022/05/30 13:14:44;;;;;;;1.13;0.60;;;11.10;99.90;;;;;;5093192;28;20071;-71
2022/05/30 13:17:22;;;;;;;0.80;0.60;;;11.10;99.90;;;;;;5091789;28;20120;-71
2022/05/30 13:20:03;;;;;;;0.95;0.50;;;11.10;99.90;;;;;;5092912;28;20048;-70
2022/05/30 13:22:30;;;;;;;1.15;0.32;;;11.10;99.90;;;;;;5092892;28;20052;-75
2022/05/30 13:24:59;;;;;;;0.65;0.38;;;11.10;99.90;;;;;;5091313;28;20052;-70
2022/05/30 13:27:27;;;;;;;1.08;0.20;;;11.10;99.90;;;;;;5076658;28;20056;-70
2022/05/30 13:29:55;;;;;;;0.45;0.30;;;11.10;99.90;;;;;;5096887;28;20055;-70
2022/05/30 13:32:25;;;;;;;0.55;0.30;;;11.10;99.90;;;;;;5096611;28;20047;-70
2022/05/30 13:34:58;;;;;;;0.40;0.32;;;11.10;99.90;;;;;;5096422;28;20130;-70
2022/05/30 13:37:34;;;;;;;1.58;0.30;;;11.10;99.90;;;;;;5096733;28;20047;-71
2022/05/30 13:40:06;;;;;;;1.33;0.37;;;11.10;99.90;;;;;;5095242;28;20052;-70